Time;durP1;ratioP1;P1;durP2;ratioP2;P2;SDS_P1;SDS_P2;PMS_P1;PMS_P2;Temp;Humidity;BMP_temperature;BMP_pressure;BME280_temperature;BME280_humidity;BME280_pressure;Samples;Min_cycle;Max_cycle;Signal;HPM_P1;HPM_P2
2021/08/14 00:03:27;;;;;;;12.23;7.17;;;;;;;20.85;100.00;95383.91;10443259;28;20094;-88
2021/08/14 00:08:29;;;;;;;13.57;7.38;;;;;;;20.78;100.00;95397.25;10444352;28;20111;-89
2021/08/14 00:13:29;;;;;;;10.80;7.40;;;;;;;20.75;100.00;95390.50;10443884;28;20522;-89
2021/08/14 00:18:30;;;;;;;11.57;6.93;;;;;;;20.70;100.00;95384.38;10445281;28;20079;-88
2021/08/14 00:23:30;;;;;;;11.98;7.82;;;;;;;20.58;100.00;95399.47;10453021;28;20017;-88
2021/08/14 00:28:31;;;;;;;10.35;6.70;;;;;;;20.61;100.00;95400.72;10443268;28;20071;-89
2021/08/14 00:33:31;;;;;;;8.60;6.53;;;;;;;20.55;100.00;95400.09;10442778;28;20454;-89
2021/08/14 00:38:32;;;;;;;11.15;7.10;;;;;;;20.32;100.00;95419.34;10442379;28;20311;-88
2021/08/14 00:43:32;;;;;;;11.10;7.35;;;;;;;20.34;100.00;95410.03;10449089;28;20029;-89
2021/08/14 00:48:34;;;;;;;10.88;7.15;;;;;;;20.37;100.00;95425.78;10454246;28;20021;-92
2021/08/14 00:53:35;;;;;;;12.50;7.75;;;;;;;20.28;100.00;95421.09;10458655;28;20028;-91
2021/08/14 00:58:37;;;;;;;10.07;7.32;;;;;;;20.24;100.00;95409.22;10458880;28;20558;-92
2021/08/14 01:03:38;;;;;;;9.85;6.50;;;;;;;20.13;100.00;95410.63;10458143;28;20024;-92
2021/08/14 01:08:38;;;;;;;12.52;7.85;;;;;;;20.03;100.00;95409.00;10457126;28;20029;-91
2021/08/14 01:13:43;;;;;;;9.32;7.07;;;;;;;20.01;100.00;95408.53;10456650;28;20040;-92
2021/08/14 01:18:46;;;;;;;8.80;7.25;;;;;;;19.84;100.00;95405.72;10457728;28;20025;-91
2021/08/14 01:23:48;;;;;;;11.63;7.20;;;;;;;19.76;100.00;95402.63;10451295;28;20041;-89
2021/08/14 01:28:50;;;;;;;16.45;7.75;;;;;;;19.67;100.00;95398.28;10454822;28;20029;-89
2021/08/14 01:33:51;;;;;;;11.70;7.78;;;;;;;19.55;100.00;95401.56;10452158;28;20056;-89
2021/08/14 01:38:53;;;;;;;11.20;8.20;;;;;;;19.46;100.00;95398.81;10450168;28;20040;-88
2021/08/14 01:43:53;;;;;;;10.27;7.63;;;;;;;19.38;100.00;95402.31;10451104;28;20025;-88
2021/08/14 01:48:54;;;;;;;10.60;7.72;;;;;;;19.41;100.00;95401.66;10450622;28;20029;-88
2021/08/14 01:53:58;;;;;;;10.15;7.07;;;;;;;19.43;100.00;95392.06;10459868;28;20045;-88
2021/08/14 01:59:00;;;;;;;12.75;7.10;;;;;;;19.33;100.00;95394.28;10448765;28;20029;-87
2021/08/14 02:04:02;;;;;;;10.93;7.40;;;;;;;19.28;100.00;95385.13;10447142;28;20379;-87
2021/08/14 02:09:02;;;;;;;10.48;7.40;;;;;;;19.25;100.00;95388.44;10447152;28;20376;-88
2021/08/14 02:14:05;;;;;;;9.45;6.80;;;;;;;19.32;100.00;95388.00;10447985;28;20020;-88
2021/08/14 02:19:06;;;;;;;11.82;6.85;;;;;;;19.42;100.00;95381.47;10443948;28;20116;-88
2021/08/14 02:24:06;;;;;;;11.27;7.75;;;;;;;19.37;100.00;95385.16;10458824;28;20111;-88
2021/08/14 02:29:07;;;;;;;9.73;7.72;;;;;;;19.28;100.00;95382.38;10453447;28;20031;-88
2021/08/14 02:34:07;;;;;;;9.57;8.32;;;;;;;19.18;100.00;95377.19;10447818;28;20051;-89
2021/08/14 02:39:08;;;;;;;10.45;7.75;;;;;;;19.06;100.00;95379.69;10446096;28;20028;-89
2021/08/14 02:44:08;;;;;;;11.25;6.40;;;;;;;19.05;100.00;95387.06;10447319;28;20108;-89
2021/08/14 02:49:09;;;;;;;10.80;7.13;;;;;;;19.03;100.00;95402.91;10451967;28;20013;-89
2021/08/14 02:54:09;;;;;;;10.65;7.22;;;;;;;19.05;100.00;95397.16;10450955;28;20273;-89
2021/08/14 02:59:09;;;;;;;9.98;6.50;;;;;;;19.05;100.00;95394.44;10446674;28;20511;-89
2021/08/14 03:04:10;;;;;;;15.73;6.80;;;;;;;19.07;100.00;95400.38;10446332;28;20450;-88
2021/08/14 03:09:11;;;;;;;11.73;7.17;;;;;;;19.01;100.00;95412.50;10444806;28;20021;-89
2021/08/14 03:14:11;;;;;;;11.10;7.40;;;;;;;18.99;100.00;95417.47;10444837;28;20291;-88
2021/08/14 03:19:12;;;;;;;10.13;7.30;;;;;;;18.94;100.00;95415.66;10445719;28;20112;-89
2021/08/14 03:24:12;;;;;;;10.40;7.20;;;;;;;18.82;100.00;95420.84;10447261;28;20037;-88
2021/08/14 03:29:13;;;;;;;10.43;7.07;;;;;;;18.78;100.00;95424.19;10446613;28;20777;-89
2021/08/14 03:34:13;;;;;;;16.63;6.73;;;;;;;18.72;100.00;95432.78;10445730;28;20295;-88
2021/08/14 03:39:13;;;;;;;8.23;6.77;;;;;;;18.60;100.00;95441.47;10447353;28;20055;-88
2021/08/14 03:44:14;;;;;;;13.95;7.10;;;;;;;18.69;100.00;95444.28;10449630;28;20370;-88
2021/08/14 03:49:15;;;;;;;10.82;7.93;;;;;;;18.66;100.00;95442.19;10447691;28;20542;-88
2021/08/14 03:54:15;;;;;;;12.10;7.90;;;;;;;18.68;100.00;95446.19;10447428;28;20016;-88
2021/08/14 03:59:16;;;;;;;11.32;7.07;;;;;;;18.70;100.00;95451.31;10446852;28;20024;-88
2021/08/14 04:04:16;;;;;;;11.27;8.00;;;;;;;18.70;100.00;95457.59;10463360;28;20044;-89
2021/08/14 04:09:17;;;;;;;10.10;7.43;;;;;;;18.60;100.00;95449.63;10447317;28;20013;-87
2021/08/14 04:14:17;;;;;;;14.60;7.35;;;;;;;18.73;100.00;95456.97;10447478;28;20691;-88
2021/08/14 04:19:18;;;;;;;9.73;7.50;;;;;;;18.71;100.00;95456.47;10454633;28;20025;-89
2021/08/14 04:24:18;;;;;;;11.23;7.38;;;;;;;18.79;100.00;95455.72;10454547;28;20093;-89
2021/08/14 04:29:19;;;;;;;11.35;8.32;;;;;;;18.77;100.00;95468.06;10455285;28;20043;-89
2021/08/14 04:34:19;;;;;;;10.10;7.72;;;;;;;18.99;100.00;95466.50;10466466;28;20063;-89
2021/08/14 04:39:20;;;;;;;10.30;7.27;;;;;;;19.12;100.00;95462.91;10454693;28;20341;-88
2021/08/14 04:44:20;;;;;;;11.83;8.20;;;;;;;19.20;100.00;95454.00;10455762;28;20275;-89
2021/08/14 04:49:21;;;;;;;8.40;7.53;;;;;;;19.33;100.00;95454.25;10454606;28;20746;-89
2021/08/14 04:54:21;;;;;;;13.77;7.53;;;;;;;19.36;100.00;95453.59;10451681;28;20032;-89
2021/08/14 04:59:22;;;;;;;11.80;7.63;;;;;;;19.58;100.00;95445.38;10450821;28;20336;-89
2021/08/14 05:04:23;;;;;;;11.60;7.50;;;;;;;19.92;100.00;95454.88;10450859;28;20264;-90
2021/08/14 05:09:25;;;;;;;9.20;7.18;;;;;;;20.40;100.00;95449.69;10452121;28;20786;-90
2021/08/14 05:14:25;;;;;;;9.52;6.70;;;;;;;20.94;100.00;95450.25;10453322;28;20025;-89
2021/08/14 05:19:25;;;;;;;10.33;6.47;;;;;;;21.33;100.00;95450.38;10450997;28;20025;-90
2021/08/14 05:24:26;;;;;;;8.10;6.47;;;;;;;21.60;100.00;95451.97;10450211;28;20335;-89
2021/08/14 05:29:26;;;;;;;9.90;6.18;;;;;;;21.99;100.00;95455.53;10449843;28;20025;-89
2021/08/14 05:34:28;;;;;;;11.73;6.47;;;;;;;22.17;100.00;95453.53;10451374;28;20033;-89
2021/08/14 05:39:29;;;;;;;9.63;6.05;;;;;;;23.12;100.00;95449.69;10453448;28;20299;-92
2021/08/14 05:44:32;;;;;;;10.68;5.13;;;;;;;24.30;100.00;95452.16;10455062;28;20029;-91
2021/08/14 05:49:32;;;;;;;14.63;6.00;;;;;;;25.11;98.03;95452.25;10458009;28;20021;-91
2021/08/14 05:54:34;;;;;;;10.45;4.97;;;;;;;26.20;85.18;95455.94;10457169;28;20032;-90
2021/08/14 05:59:34;;;;;;;8.07;5.30;;;;;;;26.88;78.96;95451.22;10458743;28;20029;-92
2021/08/14 06:04:34;;;;;;;9.97;4.97;;;;;;;27.69;70.14;95444.97;10452569;28;20089;-91
2021/08/14 06:09:35;;;;;;;8.00;4.60;;;;;;;28.37;62.83;95455.59;10452316;28;20260;-90
2021/08/14 06:14:37;;;;;;;12.15;6.40;;;;;;;28.46;59.82;95458.91;10479818;28;20167;-90
2021/08/14 06:19:37;;;;;;;8.07;3.85;;;;;;;28.55;58.23;95466.94;10462979;28;20025;-91
2021/08/14 06:24:38;;;;;;;6.50;3.60;;;;;;;29.00;54.60;95451.41;10451047;28;20029;-90
2021/08/14 06:29:38;;;;;;;11.20;3.60;;;;;;;29.72;51.96;95443.94;10450832;28;20108;-91
2021/08/14 06:34:38;;;;;;;11.10;4.07;;;;;;;30.12;49.46;95439.59;10461837;28;20295;-90
2021/08/14 06:39:39;;;;;;;9.23;4.17;;;;;;;30.86;49.13;95445.31;10455749;28;20337;-91
2021/08/14 06:44:39;;;;;;;10.65;3.85;;;;;;;31.69;44.58;95443.72;10451929;28;20274;-91
2021/08/14 06:49:40;;;;;;;7.93;3.70;;;;;;;32.47;42.60;95447.00;10452831;28;20101;-91
2021/08/14 06:54:40;;;;;;;5.47;3.75;;;;;;;32.91;41.23;95446.97;10451311;28;20020;-90
2021/08/14 06:59:41;;;;;;;6.75;3.40;;;;;;;33.18;40.08;95433.34;10451452;28;20040;-91
2021/08/14 07:04:41;;;;;;;8.63;3.47;;;;;;;34.18;38.72;95436.81;10452637;28;20138;-92
2021/08/14 07:09:42;;;;;;;9.77;3.50;;;;;;;33.98;38.74;95433.75;10451054;28;20267;-91
2021/08/14 07:14:42;;;;;;;9.17;3.73;;;;;;;34.62;37.11;95423.28;10450827;28;20028;-91
2021/08/14 07:19:42;;;;;;;4.43;3.50;;;;;;;35.23;36.21;95436.63;10450942;28;20115;-91
2021/08/14 07:24:44;;;;;;;8.73;4.17;;;;;;;35.30;35.80;95425.38;10450666;28;20275;-91
2021/08/14 07:29:45;;;;;;;8.65;4.30;;;;;;;36.01;34.62;95424.88;10459529;28;20014;-91
2021/08/14 07:34:45;;;;;;;6.13;3.20;;;;;;;36.35;34.34;95418.34;10454546;28;20419;-91
2021/08/14 07:39:46;;;;;;;10.87;4.13;;;;;;;36.56;33.76;95419.97;10453653;28;20036;-91
2021/08/14 07:44:47;;;;;;;5.23;3.77;;;;;;;37.31;32.86;95419.84;10458359;28;20060;-91
2021/08/14 07:49:47;;;;;;;11.32;3.90;;;;;;;35.41;34.29;95414.88;10461509;28;20264;-91
2021/08/14 07:54:50;;;;;;;7.73;3.73;;;;;;;35.04;34.97;95419.28;10452766;28;20036;-92
2021/08/14 07:59:51;;;;;;;7.93;3.67;;;;;;;35.00;35.62;95414.94;10454261;28;20283;-91
2021/08/14 08:04:51;;;;;;;4.27;3.03;;;;;;;36.00;32.80;95418.47;10451086;28;20029;-89
2021/08/14 08:09:52;;;;;;;8.23;3.77;;;;;;;36.78;32.16;95411.97;10451776;28;20358;-92
2021/08/14 08:14:52;;;;;;;5.37;2.90;;;;;;;37.16;30.34;95410.88;10452160;28;20495;-92
2021/08/14 08:19:54;;;;;;;7.00;3.73;;;;;;;36.85;29.74;95399.88;10454408;28;20119;-91
2021/08/14 08:24:57;;;;;;;6.65;4.78;;;;;;;38.54;28.19;95404.59;10474943;28;20029;-93
2021/08/14 08:29:57;;;;;;;4.57;3.03;;;;;;;38.41;26.22;95403.75;10449416;28;20108;-91
2021/08/14 08:34:58;;;;;;;4.03;3.07;;;;;;;38.42;26.08;95394.88;10449813;28;20595;-92
2021/08/14 08:39:58;;;;;;;4.40;3.10;;;;;;;39.25;25.57;95391.91;10449893;28;20068;-92
2021/08/14 08:44:59;;;;;;;5.32;3.35;;;;;;;39.15;24.03;95388.16;10450479;28;20084;-91
2021/08/14 08:50:00;;;;;;;4.03;2.67;;;;;;;40.24;23.09;95383.66;10448035;28;20037;-91
2021/08/14 08:55:01;;;;;;;4.53;2.83;;;;;;;38.13;26.01;95384.31;10449009;28;20563;-92
2021/08/14 09:00:01;;;;;;;6.18;3.40;;;;;;;38.89;25.30;95379.63;10448460;28;20116;-91
2021/08/14 09:05:25;;;;;;;8.65;3.25;;;;;;;39.71;24.61;95366.44;10457828;28;20032;-92
2021/08/14 09:10:25;;;;;;;3.97;3.53;;;;;;;40.07;24.65;95365.34;10456079;28;20037;-91
2021/08/14 09:15:31;;;;;;;5.27;3.90;;;;;;;39.69;23.89;95366.91;10455403;28;20020;-92
2021/08/14 09:20:42;;;;;;;4.78;3.92;;;;;;;40.69;23.88;95366.88;10461544;28;20742;-90
2021/08/14 09:25:53;;;;;;;6.97;4.38;;;;;;;40.69;22.93;95358.44;10458556;28;20103;-91
2021/08/14 09:30:57;;;;;;;8.10;4.07;;;;;;;40.37;23.64;95361.09;10457039;28;20043;-92
2021/08/14 09:36:19;;;;;;;7.82;3.35;;;;;;;41.68;22.62;95347.53;10455497;28;20430;-92
2021/08/14 09:41:22;;;;;;;12.75;4.50;;;;;;;41.27;22.65;95340.25;10456870;28;20032;-92
2021/08/14 09:46:40;;;;;;;5.03;4.60;;;;;;;40.52;22.87;95338.88;10457280;28;20115;-90
2021/08/14 09:51:40;;;;;;;4.80;4.32;;;;;;;40.78;22.28;95333.94;10456577;28;20052;-94
2021/08/14 09:56:41;;;;;;;9.95;5.05;;;;;;;40.44;22.96;95335.50;10467392;28;20029;-94
2021/08/14 10:01:42;;;;;;;6.43;4.55;;;;;;;41.05;22.60;95315.66;10485700;28;20093;-93
2021/08/14 10:06:44;;;;;;;5.97;5.05;;;;;;;40.89;22.40;95316.63;10485356;28;20045;-96
2021/08/14 10:11:47;;;;;;;6.13;4.70;;;;;;;41.91;22.22;95308.72;10475876;28;20017;-96
2021/08/14 10:16:48;;;;;;;6.28;5.13;;;;;;;43.21;20.62;95303.16;10462823;28;20063;-96
2021/08/14 10:21:54;;;;;;;5.05;4.20;;;;;;;43.87;19.84;95285.47;10463515;28;20110;-96
2021/08/14 10:27:12;;;;;;;6.55;4.18;;;;;;;43.62;19.90;95286.66;10468571;28;20029;-96
2021/08/14 10:32:32;;;;;;;5.82;4.32;;;;;;;42.50;20.71;95286.06;10488440;28;20025;-95
2021/08/14 10:37:34;;;;;;;5.35;4.70;;;;;;;42.42;20.64;95275.56;10469203;28;20053;-95
2021/08/14 10:42:47;;;;;;;6.80;4.63;;;;;;;43.13;20.41;95268.75;10465197;28;20451;-95
2021/08/14 10:47:50;;;;;;;6.47;4.70;;;;;;;41.89;20.95;95277.34;10463226;28;20027;-95
2021/08/14 10:53:10;;;;;;;7.90;5.90;;;;;;;38.75;24.03;95265.63;10461538;28;20032;-96
2021/08/14 10:58:17;;;;;;;7.28;5.38;;;;;;;38.27;24.36;95262.47;10484071;28;20025;-95
2021/08/14 11:03:33;;;;;;;7.80;5.15;;;;;;;40.46;22.84;95256.19;10457740;28;20047;-91
2021/08/14 11:08:34;;;;;;;7.43;5.13;;;;;;;41.53;21.52;95258.25;10451393;28;20035;-90
2021/08/14 11:13:34;;;;;;;6.57;4.77;;;;;;;40.26;22.11;95251.63;10450877;28;20103;-91
2021/08/14 11:18:56;;;;;;;6.13;5.53;;;;;;;38.11;24.09;95249.25;10449239;28;20291;-91
2021/08/14 11:23:57;;;;;;;6.45;5.65;;;;;;;35.78;27.38;95247.38;10450606;28;20021;-92
2021/08/14 11:29:00;;;;;;;13.63;6.55;;;;;;;33.48;29.30;95262.84;10449484;28;20027;-91
2021/08/14 11:34:12;;;;;;;11.07;6.38;;;;;;;32.46;30.46;95239.50;10450810;28;20107;-96
2021/08/14 11:39:13;;;;;;;12.13;6.25;;;;;;;32.26;31.01;95247.50;10458126;28;20033;-96
2021/08/14 11:44:19;;;;;;;8.95;5.93;;;;;;;31.47;31.83;95230.94;10459544;28;20016;-96
2021/08/14 11:49:19;;;;;;;6.68;5.50;;;;;;;31.65;31.53;95225.41;10459053;28;20028;-93
2021/08/14 11:54:29;;;;;;;7.87;5.47;;;;;;;31.24;32.69;95231.31;10458917;28;20025;-95
2021/08/14 11:59:31;;;;;;;10.40;4.63;;;;;;;31.49;31.73;95223.75;10458123;28;20279;-95
2021/08/14 12:04:31;;;;;;;7.60;3.70;;;;;;;31.18;31.57;95230.91;10456191;28;20029;-95
2021/08/14 12:09:32;;;;;;;8.25;4.50;;;;;;;31.00;31.94;95219.75;10455631;28;20047;-95
2021/08/14 12:14:41;;;;;;;8.40;4.13;;;;;;;31.13;31.79;95209.88;10455929;28;20044;-93
2021/08/14 12:19:56;;;;;;;8.90;4.22;;;;;;;31.65;31.86;95212.28;10478179;28;20029;-94
2021/08/14 12:24:56;;;;;;;8.15;4.13;;;;;;;31.66;31.14;95213.88;10502878;28;20028;-94
2021/08/14 12:30:17;;;;;;;6.47;4.20;;;;;;;31.12;31.98;95199.97;10488110;28;20044;-95
2021/08/14 12:35:23;;;;;;;9.15;3.80;;;;;;;31.02;31.46;95189.63;10477352;28;20068;-95
2021/08/14 12:40:23;;;;;;;6.13;3.90;;;;;;;30.76;31.34;95197.09;10493917;28;20218;-95
2021/08/14 12:45:24;;;;;;;5.97;3.97;;;;;;;30.75;32.13;95189.94;10464552;28;20088;-95
2021/08/14 12:50:35;;;;;;;8.10;4.45;;;;;;;30.93;31.50;95172.56;10465031;28;20029;-95
2021/08/14 12:55:40;;;;;;;6.50;4.57;;;;;;;30.93;30.89;95172.56;10464518;28;20119;-93
2021/08/14 13:00:48;;;;;;;8.20;3.83;;;;;;;30.70;31.61;95168.16;10463323;28;20036;-95
2021/08/14 13:05:49;;;;;;;5.05;4.15;;;;;;;30.77;31.94;95157.06;10461365;28;20115;-90
2021/08/14 13:10:51;;;;;;;8.30;4.13;;;;;;;30.94;31.50;95160.28;10455277;28;20449;-90
2021/08/14 13:15:52;;;;;;;6.28;4.10;;;;;;;30.92;31.56;95157.09;10456843;28;20017;-91
2021/08/14 13:20:53;;;;;;;5.30;3.70;;;;;;;30.53;31.45;95150.28;10460541;28;20052;-90
2021/08/14 13:25:55;;;;;;;6.93;4.20;;;;;;;30.65;31.90;95158.22;10461081;28;20028;-91
2021/08/14 13:30:55;;;;;;;7.35;4.30;;;;;;;30.53;32.34;95158.59;10461761;28;20082;-96
2021/08/14 13:35:56;;;;;;;3.85;3.22;;;;;;;30.39;32.36;95164.84;10471490;28;20076;-95
2021/08/14 13:40:56;;;;;;;4.40;3.60;;;;;;;30.33;32.65;95156.13;10462184;28;20036;-95
2021/08/14 13:45:57;;;;;;;7.82;4.20;;;;;;;30.41;32.67;95145.09;10461261;28;20057;-95
2021/08/14 13:50:57;;;;;;;29.00;8.87;;;;;;;30.32;33.45;95148.22;10459493;28;20067;-91
2021/08/14 13:55:57;;;;;;;6.80;4.03;;;;;;;30.11;33.54;95135.84;10452772;28;20271;-90
2021/08/14 14:00:59;;;;;;;8.13;3.73;;;;;;;30.07;33.73;95139.81;10452500;28;20410;-91
2021/08/14 14:05:59;;;;;;;11.95;4.30;;;;;;;30.12;33.44;95128.34;10458023;28;20028;-90
2021/08/14 14:11:00;;;;;;;7.07;3.87;;;;;;;30.07;33.74;95132.28;10457642;28;20050;-93
2021/08/14 14:16:00;;;;;;;4.82;3.30;;;;;;;29.99;33.68;95139.78;10472630;28;20124;-95
2021/08/14 14:21:02;;;;;;;4.65;3.50;;;;;;;30.04;33.90;95138.59;10477829;28;20057;-94
2021/08/14 14:26:03;;;;;;;10.15;4.22;;;;;;;29.93;34.66;95135.81;10462667;28;20113;-95
2021/08/14 14:31:03;;;;;;;9.67;4.17;;;;;;;29.77;34.78;95133.31;10460389;28;20110;-94
2021/08/14 14:36:04;;;;;;;4.47;3.40;;;;;;;29.67;34.38;95125.75;10458358;28;20682;-95
2021/08/14 14:41:04;;;;;;;5.78;3.78;;;;;;;29.49;34.62;95126.41;10457986;28;20488;-95
2021/08/14 14:46:05;;;;;;;6.13;4.03;;;;;;;29.46;34.66;95126.41;10458881;28;20025;-94
2021/08/14 14:51:05;;;;;;;8.50;4.20;;;;;;;29.36;34.68;95111.31;10483886;28;20284;-96
2021/08/14 14:56:07;;;;;;;5.27;3.43;;;;;;;29.22;34.94;95114.75;10458276;28;20094;-94
2021/08/14 15:01:08;;;;;;;9.40;4.05;;;;;;;29.12;35.47;95112.69;10447639;28;20792;-91
2021/08/14 15:06:09;;;;;;;6.10;3.37;;;;;;;29.03;35.32;95115.00;10447823;28;20025;-90
2021/08/14 15:11:09;;;;;;;4.82;2.88;;;;;;;29.04;34.78;95116.59;10449530;28;20271;-91
2021/08/14 15:16:09;;;;;;;5.27;3.43;;;;;;;28.90;35.32;95118.06;10446987;28;20028;-90
2021/08/14 15:21:10;;;;;;;8.17;3.50;;;;;;;28.85;35.33;95112.88;10446563;28;20036;-91
2021/08/14 15:26:10;;;;;;;4.85;3.78;;;;;;;28.79;35.37;95111.66;10446520;28;20065;-90
2021/08/14 15:31:13;;;;;;;6.03;3.63;;;;;;;28.73;36.01;95111.22;10447361;28;20036;-90
2021/08/14 15:36:13;;;;;;;6.03;3.63;;;;;;;28.59;35.65;95108.28;10447137;28;20458;-90
2021/08/14 15:41:15;;;;;;;7.73;4.03;;;;;;;28.52;36.04;95108.22;10446392;28;20028;-91
2021/08/14 15:46:15;;;;;;;5.05;4.30;;;;;;;28.45;36.53;95109.75;10446266;28;20115;-91
2021/08/14 15:51:16;;;;;;;5.85;3.83;;;;;;;28.21;36.82;95107.50;10446853;28;20025;-90
2021/08/14 15:56:16;;;;;;;6.38;4.35;;;;;;;28.19;36.96;95104.31;10448287;28;20029;-91
2021/08/14 16:01:17;;;;;;;7.90;4.18;;;;;;;28.20;37.15;95109.47;10447194;28;20476;-91
2021/08/14 16:06:17;;;;;;;19.35;4.43;;;;;;;28.05;37.66;95107.69;10456841;28;20043;-94
2021/08/14 16:11:18;;;;;;;7.17;4.17;;;;;;;28.00;37.60;95095.03;10455786;28;20136;-95
2021/08/14 16:16:18;;;;;;;8.63;4.57;;;;;;;27.97;37.58;95101.28;10465392;28;20283;-96
2021/08/14 16:21:19;;;;;;;5.68;3.90;;;;;;;27.86;37.72;95097.59;10483012;28;20105;-95
2021/08/14 16:26:21;;;;;;;11.30;4.22;;;;;;;27.79;37.76;95099.09;10472235;28;20028;-95
2021/08/14 16:31:22;;;;;;;7.25;4.20;;;;;;;27.73;38.38;95114.41;10466119;28;20025;-95
2021/08/14 16:36:22;;;;;;;10.30;4.22;;;;;;;27.60;38.82;95115.81;10456163;28;20135;-95
2021/08/14 16:41:23;;;;;;;8.47;4.30;;;;;;;27.53;39.54;95116.53;10454997;28;20029;-96
2021/08/14 16:46:26;;;;;;;8.75;5.38;;;;;;;27.51;39.58;95107.03;10454982;28;20303;-96
2021/08/14 16:51:27;;;;;;;6.85;5.18;;;;;;;27.42;39.65;95110.84;10455175;28;20021;-96
2021/08/14 16:56:28;;;;;;;6.72;3.83;;;;;;;27.32;39.61;95111.44;10475740;28;20036;-95
2021/08/14 17:01:28;;;;;;;9.02;4.60;;;;;;;27.25;39.57;95114.09;10465168;28;20124;-95
2021/08/14 17:06:29;;;;;;;7.10;4.05;;;;;;;27.16;40.06;95125.41;10455077;28;20029;-96
2021/08/14 17:11:31;;;;;;;9.13;4.20;;;;;;;26.99;40.33;95126.72;10454973;28;20407;-95
2021/08/14 17:16:31;;;;;;;5.43;3.70;;;;;;;26.85;41.15;95124.53;10454838;28;20278;-96
2021/08/14 17:21:32;;;;;;;6.97;4.90;;;;;;;26.70;41.54;95119.94;10459901;28;20052;-95
2021/08/14 17:26:32;;;;;;;13.85;4.32;;;;;;;26.48;42.54;95124.25;10461714;28;20029;-95
2021/08/14 17:31:33;;;;;;;8.43;4.28;;;;;;;26.39;42.69;95133.56;10462212;28;20025;-96
2021/08/14 17:36:34;;;;;;;15.85;4.85;;;;;;;26.37;42.91;95132.31;10461844;28;20496;-96
2021/08/14 17:41:35;;;;;;;10.52;4.18;;;;;;;26.35;43.11;95149.22;10461146;28;20503;-96
2021/08/14 17:46:38;;;;;;;7.32;4.03;;;;;;;26.27;43.84;95150.25;10463430;28;20055;-96
2021/08/14 17:51:39;;;;;;;8.13;4.55;;;;;;;26.23;43.77;95160.41;10470409;28;20025;-93
2021/08/14 17:56:40;;;;;;;5.45;4.50;;;;;;;26.05;44.43;95166.38;10484200;28;20468;-96
2021/08/14 18:01:40;;;;;;;6.13;4.80;;;;;;;26.09;44.76;95166.44;10489724;28;20036;-94
2021/08/14 18:06:42;;;;;;;8.25;4.85;;;;;;;26.07;46.08;95169.53;10491468;28;20114;-95
2021/08/14 18:11:43;;;;;;;8.02;4.80;;;;;;;25.74;47.14;95173.53;10465713;28;20557;-96
2021/08/14 18:16:44;;;;;;;13.10;6.05;;;;;;;25.61;47.31;95185.03;10460044;28;20113;-96
2021/08/14 18:21:44;;;;;;;9.65;5.70;;;;;;;25.39;48.72;95187.31;10461456;28;20025;-96
2021/08/14 18:26:46;;;;;;;9.93;5.95;;;;;;;25.33;49.66;95181.28;10491085;28;20017;-96
2021/08/14 18:31:47;;;;;;;8.68;4.80;;;;;;;25.25;50.63;95177.53;10509911;28;20025;-91
2021/08/14 18:36:47;;;;;;;13.60;4.97;;;;;;;25.26;50.78;95183.84;10485414;28;20045;-91
2021/08/14 18:41:50;;;;;;;8.95;4.95;;;;;;;25.12;51.05;95188.97;10469747;28;20334;-89
2021/08/14 18:46:50;;;;;;;5.60;4.60;;;;;;;25.04;51.07;95188.03;10449748;28;20028;-90
2021/08/14 18:51:51;;;;;;;7.47;5.00;;;;;;;24.90;51.82;95180.22;10448167;28;20383;-91
2021/08/14 18:56:51;;;;;;;8.77;5.45;;;;;;;24.82;52.78;95186.69;10449710;28;20032;-91
2021/08/14 19:01:52;;;;;;;16.52;9.93;;;;;;;24.79;53.99;95192.91;10462581;28;20028;-91
2021/08/14 19:06:53;;;;;;;11.35;7.35;;;;;;;24.60;55.86;95191.63;10462632;28;20495;-89
2021/08/14 19:11:53;;;;;;;15.20;6.27;;;;;;;24.57;57.20;95189.53;10453079;28;20027;-90
2021/08/14 19:16:54;;;;;;;18.02;7.50;;;;;;;24.41;58.72;95195.03;10454604;28;20021;-90
2021/08/14 19:21:54;;;;;;;18.52;7.53;;;;;;;24.30;60.30;95193.94;10453222;28;20033;-90
2021/08/14 19:26:55;;;;;;;10.87;6.70;;;;;;;24.08;61.27;95192.53;10456597;28;20401;-90
2021/08/14 19:31:55;;;;;;;10.50;7.53;;;;;;;23.82;60.77;95197.28;10447314;28;20271;-90
2021/08/14 19:36:56;;;;;;;15.82;9.05;;;;;;;23.65;62.73;95187.38;10446298;28;20682;-91
2021/08/14 19:41:57;;;;;;;26.02;10.10;;;;;;;23.40;63.79;95186.59;10447417;28;20077;-91
2021/08/14 19:46:57;;;;;;;13.90;8.90;;;;;;;23.34;64.62;95185.22;10445157;28;20032;-90
2021/08/14 19:51:59;;;;;;;15.70;6.47;;;;;;;23.30;65.25;95187.84;10446996;28;20415;-90
2021/08/14 19:57:00;;;;;;;11.77;7.15;;;;;;;23.31;65.07;95183.97;10445426;28;20514;-90
2021/08/14 20:02:01;;;;;;;15.38;8.20;;;;;;;23.26;65.11;95180.66;10445348;28;20119;-92
2021/08/14 20:07:04;;;;;;;8.23;5.60;;;;;;;23.23;65.58;95184.09;10445165;28;20115;-91
2021/08/14 20:12:05;;;;;;;9.50;6.70;;;;;;;23.17;66.11;95184.31;10447072;28;20033;-91
2021/08/14 20:17:05;;;;;;;12.18;6.45;;;;;;;23.09;67.29;95187.13;10414892;28;20033;-90
2021/08/14 20:22:06;;;;;;;9.38;6.38;;;;;;;23.02;67.72;95183.03;10409304;28;20032;-87
2021/08/14 20:27:06;;;;;;;10.27;6.90;;;;;;;22.97;69.20;95175.03;10406941;28;20404;-88
2021/08/14 20:32:06;;;;;;;12.87;6.90;;;;;;;22.90;67.93;95179.47;10407486;28;20028;-89
2021/08/14 20:37:07;;;;;;;10.70;7.30;;;;;;;22.82;68.61;95175.72;10402250;28;20050;-88
2021/08/14 20:42:07;;;;;;;9.87;6.13;;;;;;;22.78;70.85;95175.56;10401408;28;20782;-89
2021/08/14 20:47:08;;;;;;;10.93;6.37;;;;;;;22.79;69.32;95168.16;10401303;28;20025;-89
2021/08/14 20:52:08;;;;;;;9.07;5.60;;;;;;;22.65;70.55;95172.03;10402651;28;20859;-89
2021/08/14 20:57:09;;;;;;;11.02;6.28;;;;;;;22.64;71.91;95173.16;10402977;28;20279;-88
2021/08/14 21:02:12;;;;;;;9.88;5.75;;;;;;;22.50;73.50;95167.19;10409830;28;20037;-88
2021/08/14 21:07:13;;;;;;;11.50;6.78;;;;;;;22.40;73.36;95173.13;10409544;28;20029;-90
2021/08/14 21:12:13;;;;;;;14.27;6.30;;;;;;;22.27;73.90;95164.84;10417770;28;20029;-88
2021/08/14 21:17:13;;;;;;;8.57;6.50;;;;;;;22.22;74.50;95167.78;10411030;28;20786;-89
2021/08/14 21:22:14;;;;;;;11.50;6.33;;;;;;;22.10;75.10;95159.50;10408783;28;20276;-89
2021/08/14 21:27:14;;;;;;;7.30;5.87;;;;;;;21.99;75.77;95168.16;10409755;28;20272;-89
2021/08/14 21:32:15;;;;;;;9.63;6.78;;;;;;;21.85;76.90;95171.16;10409723;28;20272;-88
2021/08/14 21:37:15;;;;;;;10.88;5.30;;;;;;;21.78;78.29;95184.59;10408571;28;20143;-88
2021/08/14 21:42:16;;;;;;;11.23;6.18;;;;;;;21.42;82.33;95168.72;10409124;28;20493;-88
2021/08/14 21:47:17;;;;;;;9.90;5.65;;;;;;;20.89;88.17;95179.94;10409972;28;20033;-92
2021/08/14 21:52:17;;;;;;;7.88;6.22;;;;;;;20.58;92.31;95181.00;10411907;28;20030;-91
2021/08/14 21:57:18;;;;;;;9.98;5.68;;;;;;;20.51;93.76;95183.41;10415539;28;20246;-91
2021/08/14 22:02:18;;;;;;;7.60;6.10;;;;;;;20.46;95.27;95178.94;10434055;28;20022;-91
2021/08/14 22:07:19;;;;;;;10.35;6.40;;;;;;;20.31;95.68;95179.44;10417449;28;20033;-90
2021/08/14 22:12:20;;;;;;;7.40;5.50;;;;;;;20.33;96.74;95177.19;10415795;28;20029;-91
2021/08/14 22:17:20;;;;;;;7.40;5.40;;;;;;;20.37;95.93;95171.88;10413402;28;20389;-91
2021/08/14 22:22:21;;;;;;;9.38;5.88;;;;;;;20.35;95.76;95176.88;10417399;28;20037;-90
2021/08/14 22:27:23;;;;;;;8.37;6.57;;;;;;;20.37;94.98;95169.16;10432731;28;20075;-91
2021/08/14 22:32:23;;;;;;;8.32;5.50;;;;;;;20.42;94.29;95164.31;10457981;28;20340;-90
2021/08/14 22:37:32;;;;;;;6.63;4.93;;;;;;;20.49;92.66;95156.44;10433383;28;20048;-91
2021/08/14 22:42:32;;;;;;;6.97;5.43;;;;;;;20.42;93.50;95158.06;10411189;28;20055;-91
2021/08/14 22:47:33;;;;;;;9.82;6.20;;;;;;;20.37;93.79;95156.31;10409378;28;20017;-91
2021/08/14 22:52:35;;;;;;;9.97;6.37;;;;;;;20.36;95.52;95151.16;10409086;28;20443;-91
2021/08/14 22:57:36;;;;;;;10.10;5.80;;;;;;;20.38;94.68;95149.72;10410038;28;20312;-92
2021/08/14 23:02:37;;;;;;;6.90;5.45;;;;;;;20.25;94.15;95151.53;10410870;28;20484;-92
2021/08/14 23:07:38;;;;;;;9.00;5.65;;;;;;;20.13;96.23;95149.44;10410848;28;20028;-91
2021/08/14 23:12:41;;;;;;;8.18;6.05;;;;;;;20.09;97.21;95147.69;10409195;28;20259;-92